createdAt,value
2019-01-25T00:00:43.214Z,28.5
2019-01-25T00:01:33.715Z,28.6
2019-01-25T00:02:23.489Z,28.8
2019-01-25T00:03:19.484Z,28.9
2019-01-25T00:04:03.334Z,29.1
2019-01-25T00:04:54.297Z,29.2
2019-01-25T00:05:43.172Z,29.3
2019-01-25T00:06:33.222Z,29.4
2019-01-25T00:07:23.813Z,29.5
2019-01-25T00:08:14.204Z,29.6
2019-01-25T00:09:03.702Z,29.6
2019-01-25T00:10:01.766Z,29.4
2019-01-25T00:10:43.787Z,29.3
2019-01-25T00:11:33.609Z,29.1
2019-01-25T00:12:24.466Z,29
2019-01-25T00:13:14.506Z,28.9
2019-01-25T00:14:04.049Z,28.7
2019-01-25T00:14:54.066Z,28.6
2019-01-25T00:15:43.904Z,28.4
2019-01-25T00:16:34.519Z,28.3
2019-01-25T00:17:24.509Z,28.2
2019-01-25T00:18:14.879Z,27.4
2019-01-25T00:19:04.981Z,26.6
2019-01-25T00:19:54.698Z,26.3
2019-01-25T00:20:44.773Z,26.4
2019-01-25T00:21:35.151Z,26.4
2019-01-25T00:22:25.191Z,26.6
2019-01-25T00:23:15.738Z,26.9
2019-01-25T00:24:07.151Z,27.1
2019-01-25T00:24:55.860Z,27.3
2019-01-25T00:25:45.366Z,27.6
2019-01-25T00:27:25.547Z,28
2019-01-25T00:28:15.033Z,28.2
2019-01-25T00:29:06.488Z,28.4
2019-01-25T00:29:55.465Z,28.5
2019-01-25T00:30:46.055Z,28.6
2019-01-25T00:31:37.402Z,28.8
2019-01-25T00:32:26.097Z,28.9
2019-01-25T00:33:16.189Z,29.1
2019-01-25T00:34:05.683Z,29.1
2019-01-25T00:34:56.547Z,29.3
2019-01-25T00:35:46.417Z,29.4
2019-01-25T00:36:36.169Z,29.4
2019-01-25T00:37:26.752Z,29.6
2019-01-25T00:38:15.986Z,29.6
2019-01-25T00:39:06.032Z,29.5
2019-01-25T00:39:55.542Z,29.3
2019-01-25T00:40:47.724Z,29.2
2019-01-25T00:41:36.742Z,29
2019-01-25T00:42:26.254Z,28.9
2019-01-25T00:43:16.644Z,28.8
2019-01-25T00:44:06.072Z,28.6
2019-01-25T00:44:56.733Z,28.4
2019-01-25T00:45:47.042Z,28.4
2019-01-25T00:46:36.800Z,28.2
2019-01-25T00:47:26.617Z,27.4
2019-01-25T00:48:15.837Z,26.6
2019-01-25T00:49:06.703Z,26.2
2019-01-25T00:49:57.043Z,26.3
2019-01-25T00:50:47.084Z,26.4
2019-01-25T00:51:36.936Z,26.5
2019-01-25T00:52:27.211Z,26.8
2019-01-25T00:53:17.839Z,27
2019-01-25T00:54:06.804Z,27.3
2019-01-25T00:54:56.301Z,27.4
2019-01-25T00:55:47.758Z,27.6
2019-01-25T00:56:37.015Z,27.9
2019-01-25T00:57:26.731Z,28.1
2019-01-25T00:58:18.399Z,28.3
2019-01-25T00:59:07.446Z,28.3
2019-01-25T00:59:58.005Z,28.3
2019-01-25T01:00:47.822Z,27.9
2019-01-25T01:01:37.341Z,27.3
2019-01-25T01:02:28.478Z,26.6
2019-01-25T01:03:17.980Z,25.8
2019-01-25T01:04:07.780Z,24.8
2019-01-25T01:04:58.108Z,24.1
2019-01-25T01:05:48.146Z,23.9
2019-01-25T01:06:38.493Z,24.2
2019-01-25T01:07:28.258Z,24.9
2019-01-25T01:08:17.848Z,25.6
2019-01-25T01:09:09.257Z,26.1
2019-01-25T01:09:58.432Z,26.4
2019-01-25T01:10:49.150Z,26.8
2019-01-25T01:11:38.580Z,26.9
2019-01-25T01:12:28.317Z,27.2
2019-01-25T01:13:18.680Z,27.5
2019-01-25T01:14:09.298Z,27.8
2019-01-25T01:14:59.352Z,27.9
2019-01-25T01:15:49.122Z,28.2
2019-01-25T01:16:39.437Z,28.4
2019-01-25T01:17:29.782Z,28.6
2019-01-25T01:18:18.769Z,28.7
2019-01-25T01:19:09.324Z,28.9
2019-01-25T01:19:59.419Z,29
2019-01-25T01:20:49.213Z,29.1
2019-01-25T01:21:39.217Z,29.3
2019-01-25T01:22:29.295Z,29.4
2019-01-25T01:23:19.379Z,29.5
2019-01-25T01:24:09.724Z,29.6
2019-01-25T01:25:00.002Z,29.4
2019-01-25T01:25:49.809Z,29.3
2019-01-25T01:26:39.602Z,29.2
2019-01-25T01:27:30.232Z,29.1
2019-01-25T01:28:19.986Z,28.9
2019-01-25T01:29:10.046Z,28.8
2019-01-25T01:29:59.274Z,28.6
2019-01-25T01:30:50.439Z,28.5
2019-01-25T01:31:39.951Z,28.4
2019-01-25T01:32:29.699Z,28.3
2019-01-25T01:33:20.311Z,27.3
2019-01-25T01:34:09.904Z,26.5
2019-01-25T01:35:00.261Z,26.2
2019-01-25T01:35:49.463Z,26.3
2019-01-25T01:36:40.528Z,26.4
2019-01-25T01:37:30.333Z,26.6
2019-01-25T01:38:20.688Z,26.8
2019-01-25T01:39:09.333Z,27.1
2019-01-25T01:40:00.288Z,27.3
2019-01-25T01:40:51.146Z,27.6
2019-01-25T01:42:31.298Z,28
2019-01-25T01:43:20.181Z,28.3
2019-01-25T01:44:10.258Z,28.4
2019-01-25T01:45:00.750Z,28.6
2019-01-25T01:45:50.633Z,28.7
2019-01-25T01:46:41.277Z,28.9
2019-01-25T01:47:30.750Z,29
2019-01-25T01:48:20.802Z,29.1
2019-01-25T01:49:10.913Z,29.3
2019-01-25T01:50:01.218Z,29.3
2019-01-25T01:50:50.717Z,29.4
2019-01-25T01:51:41.888Z,29.6
2019-01-25T01:52:31.095Z,29.6
2019-01-25T01:53:21.444Z,29.5
2019-01-25T01:54:11.760Z,29.4
2019-01-25T01:55:01.876Z,29.3
2019-01-25T01:55:52.197Z,29.1
2019-01-25T01:56:41.445Z,28.9
2019-01-25T01:57:32.280Z,28.8
2019-01-25T01:58:22.044Z,28.7
2019-01-25T01:59:12.402Z,28.5
2019-01-25T02:00:01.400Z,28.4
2019-01-25T02:00:52.216Z,28.3
2019-01-25T02:01:41.530Z,28.1
2019-01-25T02:02:32.067Z,27.1
2019-01-25T02:03:21.560Z,26.4
2019-01-25T02:04:12.239Z,26.2
2019-01-25T02:05:01.982Z,26.3
2019-01-25T02:05:52.127Z,26.4
2019-01-25T02:06:42.357Z,26.6
2019-01-25T02:07:32.406Z,26.9
2019-01-25T02:08:22.516Z,27.1
2019-01-25T02:09:12.273Z,27.4
2019-01-25T02:10:02.426Z,27.6
2019-01-25T02:11:42.716Z,28.1
2019-01-25T02:12:32.456Z,28.2
2019-01-25T02:13:23.091Z,28.4
2019-01-25T02:14:13.363Z,28.6
2019-01-25T02:15:03.256Z,28.7
2019-01-25T02:15:52.193Z,28.9
2019-01-25T02:16:43.046Z,28.9
2019-01-25T02:17:33.350Z,29.1
2019-01-25T02:18:23.726Z,29.2
2019-01-25T02:19:13.526Z,29.3
2019-01-25T02:20:03.565Z,29.4
2019-01-25T02:20:53.350Z,29.5
2019-01-25T02:21:43.386Z,29.6
2019-01-25T02:22:33.818Z,29.6
2019-01-25T02:23:23.788Z,29.4
2019-01-25T02:24:13.318Z,29.3
2019-01-25T02:25:03.908Z,29.1
2019-01-25T02:25:53.718Z,29
2019-01-25T02:26:43.161Z,28.9
2019-01-25T02:27:33.797Z,28.8
2019-01-25T02:28:23.858Z,28.6
2019-01-25T02:29:14.193Z,28.4
2019-01-25T02:30:04.422Z,28.3
2019-01-25T02:30:53.547Z,28.2
2019-01-25T02:31:44.217Z,27.1
2019-01-25T02:32:33.479Z,26.4
2019-01-25T02:33:24.895Z,26.1
2019-01-25T02:34:14.567Z,26.3
2019-01-25T02:35:04.417Z,26.4
2019-01-25T02:35:55.014Z,26.5
2019-01-25T02:36:44.562Z,26.8
2019-01-25T02:37:34.924Z,27
2019-01-25T02:38:24.092Z,27.3
2019-01-25T02:39:14.683Z,27.4
2019-01-25T02:40:04.737Z,27.7
2019-01-25T02:40:54.520Z,27.9
2019-01-25T02:41:45.431Z,28.1
2019-01-25T02:42:36.914Z,28.3
2019-01-25T02:43:25.014Z,28.3
2019-01-25T02:44:14.489Z,28.2
2019-01-25T02:45:05.349Z,27.6
2019-01-25T02:45:55.124Z,26.9
2019-01-25T02:46:44.891Z,26.3
2019-01-25T02:47:34.675Z,25.4
2019-01-25T02:48:25.336Z,24.4
2019-01-25T02:49:15.057Z,23.8
2019-01-25T02:50:05.860Z,23.7
2019-01-25T02:50:54.354Z,24.1
2019-01-25T02:51:45.773Z,24.8
2019-01-25T02:52:35.881Z,25.5
2019-01-25T02:53:25.939Z,26
2019-01-25T02:54:15.663Z,26.3
2019-01-25T02:55:05.273Z,26.6
2019-01-25T02:55:55.238Z,26.9
2019-01-25T02:56:45.888Z,27.2
2019-01-25T02:57:36.244Z,27.4
2019-01-25T02:58:25.133Z,27.7
2019-01-25T02:59:16.310Z,27.9
2019-01-25T03:00:06.056Z,28.2
2019-01-25T03:00:56.462Z,28.4
2019-01-25T03:01:46.457Z,28.5
2019-01-25T03:02:36.888Z,28.8
2019-01-25T03:03:26.898Z,28.9
2019-01-25T03:04:16.946Z,29
2019-01-25T03:05:06.697Z,29.2
2019-01-25T03:08:39.755Z,29.6
2019-01-25T03:09:29.147Z,29.4
2019-01-25T03:10:19.524Z,29.3
2019-01-25T03:11:09.826Z,29.1
2019-01-25T03:11:59.570Z,29
2019-01-25T03:12:50.316Z,28.9
2019-01-25T03:13:40.022Z,28.8
2019-01-25T03:14:30.137Z,28.6
2019-01-25T03:15:20.140Z,28.4
2019-01-25T03:16:09.565Z,28.3
2019-01-25T03:16:59.057Z,28.2
2019-01-25T03:17:50.737Z,28.1
2019-01-25T03:18:40.063Z,26.8
2019-01-25T03:19:30.148Z,26.3
2019-01-25T03:20:20.200Z,26.3
2019-01-25T03:21:12.368Z,26.4
2019-01-25T03:22:00.559Z,26.6
2019-01-25T03:22:50.342Z,26.8
2019-01-25T03:23:40.739Z,27.1
2019-01-25T03:24:30.795Z,27.3
2019-01-25T03:25:20.520Z,27.6
2019-01-25T03:27:00.886Z,28
2019-01-25T03:27:50.953Z,28.3
2019-01-25T03:28:41.324Z,28.4
2019-01-25T03:29:30.598Z,28.6
2019-01-25T03:30:21.687Z,28.8
2019-01-25T03:31:11.354Z,28.9
2019-01-25T03:32:01.460Z,29
2019-01-25T03:32:51.056Z,29.1
2019-01-25T03:33:40.822Z,29.3
2019-01-25T03:34:31.766Z,29.4
2019-01-25T03:35:21.253Z,29.4
2019-01-25T03:36:11.238Z,29.6
2019-01-25T03:37:00.706Z,29.6
2019-01-25T03:37:51.642Z,29.4
2019-01-25T03:38:41.743Z,29.3
2019-01-25T03:39:31.528Z,29.2
2019-01-25T03:40:22.088Z,29.1
2019-01-25T03:41:12.158Z,28.9
2019-01-25T03:42:01.603Z,28.8
2019-01-25T03:42:52.330Z,28.6
2019-01-25T03:43:42.043Z,28.4
2019-01-25T03:44:32.366Z,28.3
2019-01-25T03:45:21.871Z,28.2
2019-01-25T03:46:11.693Z,27.6
2019-01-25T03:47:02.063Z,26.6
2019-01-25T03:47:52.167Z,26.2
2019-01-25T03:48:42.087Z,26.3
2019-01-25T03:49:32.488Z,26.4
2019-01-25T03:50:22.803Z,26.5
2019-01-25T03:51:12.608Z,26.8
2019-01-25T03:52:02.638Z,27.1
2019-01-25T03:52:51.826Z,27.3
2019-01-25T03:53:42.715Z,27.5
2019-01-25T03:54:32.786Z,27.7
2019-01-25T03:55:22.602Z,27.9
2019-01-25T03:56:13.163Z,28.1
2019-01-25T03:57:02.675Z,28.3
2019-01-25T03:57:52.777Z,28.5
2019-01-25T03:58:42.547Z,28.6
2019-01-25T03:59:33.433Z,28.8
2019-01-25T04:00:22.926Z,28.9
2019-01-25T04:01:12.639Z,29
2019-01-25T04:02:03.075Z,29.1
2019-01-25T04:02:52.811Z,29.3
2019-01-25T04:03:43.369Z,29.3
2019-01-25T04:04:32.311Z,29.4
2019-01-25T04:05:23.511Z,29.5
2019-01-25T04:06:13.578Z,29.6
2019-01-25T04:07:03.322Z,29.6
2019-01-25T04:07:54.091Z,29.5
2019-01-25T04:08:43.467Z,29.3
2019-01-25T04:09:33.851Z,29.2
2019-01-25T04:10:23.602Z,29
2019-01-25T04:11:13.939Z,28.9
2019-01-25T04:12:03.724Z,28.8
2019-01-25T04:12:54.071Z,28.6
2019-01-25T04:13:43.551Z,28.4
2019-01-25T04:14:34.192Z,28.3
2019-01-25T04:15:23.887Z,28.2
2019-01-25T04:17:04.281Z,26.8
2019-01-25T04:17:53.367Z,26.3
2019-01-25T04:18:44.760Z,26.3
2019-01-25T04:19:34.226Z,26.4
2019-01-25T04:20:24.935Z,26.4
2019-01-25T04:21:14.685Z,26.7
2019-01-25T04:22:04.651Z,26.9
2019-01-25T04:22:54.506Z,27.2
2019-01-25T04:23:45.091Z,27.4
2019-01-25T04:24:34.544Z,27.6
2019-01-25T04:26:14.847Z,28.1
2019-01-25T04:27:04.711Z,28.1
2019-01-25T04:27:53.956Z,28.2
2019-01-25T04:28:44.530Z,27.8
2019-01-25T04:29:34.953Z,27.1
2019-01-25T04:30:25.358Z,26.5
2019-01-25T04:31:15.097Z,25.8
2019-01-25T04:32:05.335Z,24.9
2019-01-25T04:32:55.240Z,23.9
2019-01-25T04:33:45.715Z,23.3
2019-01-25T04:34:35.775Z,23.1
2019-01-25T04:35:25.742Z,23.4
2019-01-25T04:36:15.170Z,24.1
2019-01-25T04:37:05.175Z,25
2019-01-25T04:37:56.106Z,25.6
2019-01-25T04:38:46.130Z,26.1
2019-01-25T04:39:35.642Z,26.4
2019-01-25T04:40:25.977Z,26.6
2019-01-25T04:41:21.176Z,26.9
2019-01-25T04:42:06.302Z,27.3
2019-01-25T04:42:56.130Z,27.5
2019-01-25T04:43:45.869Z,27.8
2019-01-25T04:44:35.650Z,28
2019-01-25T04:45:26.011Z,28.3
2019-01-25T04:46:15.813Z,28.4
2019-01-25T04:47:05.577Z,28.6
2019-01-25T04:47:56.210Z,28.8
2019-01-25T04:48:46.229Z,28.9
2019-01-25T04:49:36.125Z,29.1
2019-01-25T04:50:28.259Z,29.3
2019-01-25T04:51:16.737Z,29.4
2019-01-25T04:52:05.578Z,29.6
2019-01-25T04:52:56.575Z,29.6
2019-01-25T04:53:46.958Z,29.4
2019-01-25T04:54:36.854Z,29.3
2019-01-25T04:55:26.098Z,29.2
2019-01-25T04:56:17.071Z,29.1
2019-01-25T04:57:07.121Z,28.9
2019-01-25T04:57:57.491Z,28.8
2019-01-25T04:58:46.385Z,28.6
2019-01-25T04:59:37.019Z,28.5
2019-01-25T05:00:27.371Z,28.4
2019-01-25T05:01:17.373Z,28.2
2019-01-25T05:02:07.413Z,27.6
2019-01-25T05:02:56.907Z,26.6
2019-01-25T05:03:47.326Z,26.3
2019-01-25T05:04:36.728Z,26.3
2019-01-25T05:05:27.394Z,26.4
2019-01-25T05:06:18.072Z,26.6
2019-01-25T05:07:07.817Z,26.9
2019-01-25T05:07:57.572Z,27.2
2019-01-25T05:08:47.578Z,27.4
2019-01-25T05:09:37.987Z,27.6
2019-01-25T05:10:27.997Z,27.9
2019-01-25T05:11:26.814Z,28.1
2019-01-25T05:12:08.395Z,28.4
2019-01-25T05:13:01.951Z,28.5
2019-01-25T05:13:48.228Z,28.7
2019-01-25T05:14:38.021Z,28.9
2019-01-25T05:15:28.648Z,29
2019-01-25T05:16:18.527Z,29.1
2019-01-25T05:17:08.711Z,29.3
2019-01-25T05:17:58.811Z,29.4
2019-01-25T05:18:48.301Z,29.5
2019-01-25T05:19:38.616Z,29.6
2019-01-25T05:20:28.972Z,29.6
2019-01-25T05:21:19.125Z,29.4
2019-01-25T05:22:07.969Z,29.3
2019-01-25T05:22:57.760Z,29.1
2019-01-25T05:23:48.909Z,29
2019-01-25T05:24:38.993Z,28.8
2019-01-25T05:25:28.744Z,28.7
2019-01-25T05:26:19.330Z,28.6
2019-01-25T05:27:09.389Z,28.4
2019-01-25T05:27:58.592Z,28.3
2019-01-25T05:28:48.710Z,28.1
2019-01-25T05:29:38.468Z,26.9
2019-01-25T05:30:28.903Z,26.3
2019-01-25T05:31:18.578Z,26.2
2019-01-25T05:32:09.461Z,26.4
2019-01-25T05:32:59.221Z,26.4
2019-01-25T05:33:49.591Z,26.6
2019-01-25T05:34:39.338Z,27
2019-01-25T05:35:29.752Z,27.2
2019-01-25T05:36:19.449Z,27.4
2019-01-25T05:37:09.266Z,27.7
2019-01-25T05:38:00.144Z,27.9
2019-01-25T05:38:49.906Z,28.1
2019-01-25T05:39:39.992Z,28.3
2019-01-25T05:40:29.031Z,28.5
2019-01-25T05:41:27.791Z,28.7
2019-01-25T05:42:10.424Z,28.9
2019-01-25T05:43:00.447Z,29
2019-01-25T05:43:50.240Z,29.1
2019-01-25T05:44:40.291Z,29.2
2019-01-25T05:45:30.468Z,29.3
2019-01-25T05:46:20.464Z,29.4
2019-01-25T05:47:10.740Z,29.6
2019-01-25T05:48:00.272Z,29.6
2019-01-25T05:48:50.888Z,29.5
2019-01-25T05:49:40.910Z,29.3
2019-01-25T05:50:31.027Z,29.2
2019-01-25T05:51:20.749Z,29.1
2019-01-25T05:52:10.510Z,28.9
2019-01-25T05:53:01.202Z,28.8
2019-01-25T05:53:50.623Z,28.6
2019-01-25T05:54:40.122Z,28.5
2019-01-25T05:55:30.498Z,28.3
2019-01-25T05:56:20.829Z,28.3
2019-01-25T05:57:10.882Z,27.7
2019-01-25T05:58:01.187Z,26.7
2019-01-25T05:58:51.275Z,26.2
2019-01-25T05:59:41.022Z,26.2
2019-01-25T06:00:31.642Z,26.3
2019-01-25T06:01:21.449Z,26.4
2019-01-25T06:02:11.256Z,26.6
2019-01-25T06:03:01.339Z,26.9
2019-01-25T06:03:51.306Z,27.1
2019-01-25T06:06:38.919Z,27.9
2019-01-25T06:07:28.584Z,28.1
2019-01-25T06:08:17.845Z,28.3
2019-01-25T06:09:09.052Z,28.4
2019-01-25T06:09:58.386Z,28.6
2019-01-25T06:10:49.084Z,28.8
2019-01-25T06:11:44.589Z,28.9
2019-01-25T06:12:29.501Z,28.8
2019-01-25T06:13:18.999Z,28.7
2019-01-25T06:14:09.868Z,28.2
2019-01-25T06:14:59.784Z,27.5
2019-01-25T06:15:49.775Z,26.8
2019-01-25T06:16:40.111Z,25.8
2019-01-25T06:17:29.566Z,24.9
2019-01-25T06:18:20.233Z,24.2
2019-01-25T06:19:09.441Z,24.1
2019-01-25T06:19:59.304Z,24.4
2019-01-25T06:20:50.134Z,25.1
2019-01-25T06:21:39.308Z,25.8
2019-01-25T06:22:29.655Z,26.2
2019-01-25T06:23:19.648Z,26.5
2019-01-25T06:24:10.278Z,26.8
2019-01-25T06:25:00.379Z,27.1
2019-01-25T06:25:49.656Z,27.4
2019-01-25T06:26:40.443Z,27.7
2019-01-25T06:27:30.212Z,27.9
2019-01-25T06:28:21.097Z,28.1
2019-01-25T06:29:09.561Z,28.4
2019-01-25T06:30:00.943Z,28.6
2019-01-25T06:30:49.603Z,28.8
2019-01-25T06:31:40.283Z,28.9
2019-01-25T06:32:31.115Z,29.1
2019-01-25T06:33:20.988Z,29.2
2019-01-25T06:34:10.202Z,29.4
2019-01-25T06:35:01.156Z,29.4
2019-01-25T06:35:51.404Z,29.6
2019-01-25T06:36:41.450Z,29.6
2019-01-25T06:37:30.904Z,29.4
2019-01-25T06:38:19.825Z,29.3
2019-01-25T06:39:11.605Z,29.1
2019-01-25T06:40:00.211Z,29
2019-01-25T06:40:50.024Z,28.9
2019-01-25T06:41:49.961Z,28.7
2019-01-25T06:42:31.511Z,28.6
2019-01-25T06:43:21.617Z,28.4
2019-01-25T06:44:11.111Z,28.3
2019-01-25T06:45:00.584Z,27.8
2019-01-25T06:45:53.391Z,26.7
2019-01-25T06:46:40.799Z,26.2
2019-01-25T06:47:30.809Z,26.1
2019-01-25T06:48:20.936Z,26.4
2019-01-25T06:49:11.756Z,26.4
2019-01-25T06:50:01.353Z,26.7
2019-01-25T06:50:51.670Z,27
2019-01-25T06:51:41.931Z,27.2
2019-01-25T06:52:31.657Z,27.4
2019-01-25T06:53:22.029Z,27.7
2019-01-25T06:54:12.858Z,27.9
2019-01-25T06:55:01.828Z,28.1
2019-01-25T06:55:52.161Z,28.4
2019-01-25T06:56:42.503Z,28.6
2019-01-25T06:57:32.845Z,28.7
2019-01-25T06:58:22.606Z,28.9
2019-01-25T06:59:11.825Z,29
2019-01-25T07:00:02.791Z,29.1
2019-01-25T07:00:52.233Z,29.3
2019-01-25T07:01:43.210Z,29.4
2019-01-25T07:02:33.191Z,29.5
2019-01-25T07:03:23.208Z,29.6
2019-01-25T07:04:14.926Z,29.6
2019-01-25T07:06:38.815Z,29.3
2019-01-25T07:07:29.143Z,29.1
2019-01-25T07:08:19.295Z,28.9
2019-01-25T07:09:09.008Z,28.8
2019-01-25T07:09:59.623Z,28.6
2019-01-25T07:10:49.437Z,28.5
2019-01-25T07:11:54.282Z,28.4
2019-01-25T07:12:28.892Z,28.2
2019-01-25T07:13:19.290Z,27.4
2019-01-25T07:14:09.759Z,26.6
2019-01-25T07:14:59.356Z,26.2
2019-01-25T07:15:49.992Z,26.3
2019-01-25T07:16:39.839Z,26.4
2019-01-25T07:17:29.241Z,26.4
2019-01-25T07:18:19.287Z,26.8
2019-01-25T07:19:10.264Z,27
2019-01-25T07:19:59.409Z,27.3
2019-01-25T07:20:50.279Z,27.5
2019-01-25T07:21:40.644Z,27.8
2019-01-25T07:22:29.890Z,28
2019-01-25T07:23:19.915Z,28.2
2019-01-25T07:24:09.969Z,28.4
2019-01-25T07:25:05.936Z,28.6
2019-01-25T07:25:50.372Z,28.8
2019-01-25T07:26:40.416Z,28.9
2019-01-25T07:27:29.931Z,29
2019-01-25T07:28:19.974Z,29.1
2019-01-25T07:29:10.913Z,29.3
2019-01-25T07:30:01.388Z,29.4
2019-01-25T07:30:50.917Z,29.5
2019-01-25T07:31:42.006Z,29.6
2019-01-25T07:32:30.603Z,29.5
2019-01-25T07:33:21.490Z,29.3
2019-01-25T07:34:10.099Z,29.2
2019-01-25T07:35:00.499Z,29.1
2019-01-25T07:35:51.071Z,28.9
2019-01-25T07:36:41.769Z,28.8
2019-01-25T07:37:31.642Z,28.6
2019-01-25T07:38:20.712Z,28.5
2019-01-25T07:39:11.093Z,28.4
2019-01-25T07:40:02.770Z,28.3
2019-01-25T07:40:51.983Z,28.1
2019-01-25T07:41:40.968Z,26.9
2019-01-25T07:42:31.490Z,26.3
2019-01-25T07:43:21.495Z,26.3
2019-01-25T07:44:12.541Z,26.4
2019-01-25T07:45:02.771Z,26.4
2019-01-25T07:45:52.977Z,26.7
2019-01-25T07:46:42.303Z,26.9
2019-01-25T07:47:34.313Z,27.2
2019-01-25T07:48:22.748Z,27.4
2019-01-25T07:49:12.993Z,27.7
2019-01-25T07:50:02.378Z,27.9
2019-01-25T07:50:52.955Z,28.1
2019-01-25T07:51:42.520Z,28.3
2019-01-25T07:52:33.107Z,28.5
2019-01-25T07:53:24.520Z,28.7
2019-01-25T07:54:12.787Z,28.8
2019-01-25T07:55:02.222Z,28.9
2019-01-25T07:55:52.734Z,29.1
2019-01-25T07:56:42.768Z,29.2
2019-01-25T07:57:33.012Z,29.3
2019-01-25T07:58:23.000Z,29.3
2019-01-25T07:59:12.999Z,29
2019-01-25T08:00:02.955Z,28.7
2019-01-25T08:00:53.047Z,28
2019-01-25T08:01:43.113Z,27.3
2019-01-25T08:02:32.622Z,26.4
2019-01-25T08:03:22.641Z,25.4
2019-01-25T08:04:13.265Z,24.8
2019-01-25T08:05:03.862Z,24.8
2019-01-25T08:05:53.751Z,25.2
2019-01-25T08:06:42.451Z,25.8
2019-01-25T08:07:33.892Z,26.2
2019-01-25T08:08:23.632Z,26.6
2019-01-25T08:09:13.961Z,26.9
2019-01-25T08:10:04.835Z,27.1
2019-01-25T08:10:54.511Z,27.4
2019-01-25T08:11:43.107Z,27.8
2019-01-25T08:12:33.341Z,28
2019-01-25T08:13:24.495Z,28.2
2019-01-25T08:14:16.142Z,28.4
2019-01-25T08:15:04.203Z,28.7
2019-01-25T08:15:54.627Z,28.8
2019-01-25T08:16:44.048Z,29
2019-01-25T08:17:34.175Z,29.2
2019-01-25T08:18:24.512Z,29.3
2019-01-25T08:19:14.821Z,29.5
2019-01-25T08:20:07.257Z,29.6
2019-01-25T08:20:54.277Z,29.6
2019-01-25T08:21:45.868Z,29.4
2019-01-25T08:22:35.370Z,29.3
2019-01-25T08:23:25.589Z,29.1
2019-01-25T08:24:14.686Z,29
2019-01-25T08:25:05.625Z,28.9
2019-01-25T08:25:55.785Z,28.8
2019-01-25T08:26:46.585Z,28.6
2019-01-25T08:27:35.077Z,28.4
2019-01-25T08:28:25.387Z,28.3
2019-01-25T08:29:15.331Z,28.1
2019-01-25T08:30:05.536Z,27.6
2019-01-25T08:30:55.195Z,26.6
2019-01-25T08:31:45.512Z,26.1
2019-01-25T08:32:35.543Z,26
2019-01-25T08:33:26.256Z,26
2019-01-25T08:34:15.656Z,26.3
2019-01-25T08:35:06.142Z,26.6
2019-01-25T08:35:55.295Z,26.8
2019-01-25T08:36:45.745Z,27.1
2019-01-25T08:37:35.569Z,27.4
2019-01-25T08:38:26.438Z,27.6
2019-01-25T08:39:16.404Z,27.9
2019-01-25T08:40:06.209Z,28.1
2019-01-25T08:40:57.242Z,28.3
2019-01-25T08:41:46.305Z,28.5
2019-01-25T08:42:35.782Z,28.7
2019-01-25T08:43:25.699Z,28.9
2019-01-25T08:44:16.457Z,29
2019-01-25T08:45:09.983Z,29.1
2019-01-25T08:45:59.290Z,29.3
2019-01-25T08:46:46.078Z,29.4
2019-01-25T08:47:36.575Z,29.5
2019-01-25T08:48:25.899Z,29.6
2019-01-25T08:49:16.733Z,29.6
2019-01-25T08:50:08.454Z,29.4
2019-01-25T08:50:56.999Z,29.3
2019-01-25T08:51:48.649Z,29.1
2019-01-25T08:52:37.560Z,29
2019-01-25T08:53:27.398Z,28.8
2019-01-25T08:54:18.563Z,28.7
2019-01-25T08:55:07.089Z,28.6
2019-01-25T08:55:57.543Z,28.4
2019-01-25T08:56:46.729Z,28.3
2019-01-25T08:57:37.704Z,28.2
2019-01-25T08:58:26.976Z,27.2
2019-01-25T08:59:17.408Z,26.5
2019-01-25T09:00:06.890Z,26.1
2019-01-25T09:00:58.476Z,26
2019-01-25T09:01:45.923Z,26.1
2019-01-25T09:02:36.616Z,26.3
2019-01-25T09:03:26.545Z,26.6
2019-01-25T09:04:16.441Z,26.8
2019-01-25T09:05:07.390Z,27.1
2019-01-25T09:05:57.515Z,27.4
2019-01-25T09:06:47.309Z,27.6
2019-01-25T09:08:27.732Z,28.1
2019-01-25T09:09:17.198Z,28.3
2019-01-25T09:10:07.856Z,28.4
2019-01-25T09:10:57.027Z,28.6
2019-01-25T09:11:47.102Z,28.8
2019-01-25T09:12:37.785Z,28.9
2019-01-25T09:13:28.325Z,29
2019-01-25T09:14:17.340Z,29.1
2019-01-25T09:15:07.161Z,29.3
2019-01-25T09:15:57.667Z,29.4
2019-01-25T09:16:47.450Z,29.6
2019-01-25T09:17:37.472Z,29.6
2019-01-25T09:18:27.860Z,29.4
2019-01-25T09:19:16.817Z,29.3
2019-01-25T09:20:15.844Z,29.2
2019-01-25T09:20:59.154Z,29.1
2019-01-25T09:21:48.337Z,28.9
2019-01-25T09:22:38.171Z,28.8
2019-01-25T09:23:27.398Z,28.6
2019-01-25T09:24:19.082Z,28.5
2019-01-25T09:25:08.663Z,28.3
2019-01-25T09:26:05.658Z,28.2
2019-01-25T09:26:47.731Z,26.9
2019-01-25T09:27:39.518Z,26.4
2019-01-25T09:28:28.213Z,25.9
2019-01-25T09:29:17.999Z,25.9
2019-01-25T09:30:08.882Z,25.9
2019-01-25T09:30:58.673Z,26.2
2019-01-25T09:31:49.596Z,26.5
2019-01-25T09:32:39.098Z,26.8
2019-01-25T09:33:29.604Z,27
2019-01-25T09:34:19.806Z,27.3
2019-01-25T09:35:11.293Z,27.4
2019-01-25T09:35:59.338Z,27.7
2019-01-25T09:36:49.737Z,27.9
2019-01-25T09:37:39.730Z,28.1
2019-01-25T09:38:29.784Z,28.3
2019-01-25T09:39:19.275Z,28.4
2019-01-25T09:40:09.873Z,28.6
2019-01-25T09:40:58.767Z,28.6
2019-01-25T09:41:48.935Z,28.8
2019-01-25T09:42:40.360Z,28.9
2019-01-25T09:43:29.605Z,28.8
2019-01-25T09:44:19.920Z,28.6
2019-01-25T09:45:09.650Z,28.2
2019-01-25T09:46:00.256Z,27.6
2019-01-25T09:46:49.462Z,26.9
2019-01-25T09:47:39.023Z,26.1
2019-01-25T10:29:29.298Z,27.4
2019-01-25T10:29:39.790Z,28.4
2019-01-25T10:30:28.767Z,28.4
2019-01-25T10:31:19.727Z,28.6
2019-01-25T10:32:10.333Z,28.8
2019-01-25T10:33:01.045Z,28.9
2019-01-25T10:33:49.832Z,29.1
2019-01-25T10:34:39.864Z,29.2
2019-01-25T10:35:29.169Z,29.3
2019-01-25T10:36:20.570Z,29.4
2019-01-25T10:37:10.308Z,29.5
2019-01-25T10:38:01.010Z,29.6
2019-01-25T10:38:50.451Z,29.6
2019-01-25T10:39:40.207Z,29.4
2019-01-25T10:40:30.546Z,29.3
2019-01-25T10:41:20.898Z,29.2
2019-01-25T10:42:11.585Z,29
2019-01-25T10:43:02.891Z,28.9
2019-01-25T10:43:52.275Z,28.7
2019-01-25T10:44:40.834Z,28.6
2019-01-25T10:45:31.179Z,28.4
2019-01-25T10:46:20.980Z,28.3
2019-01-25T10:47:11.679Z,28.1
2019-01-25T10:48:01.955Z,26.9
2019-01-25T10:48:50.559Z,26.4
2019-01-25T10:49:41.513Z,26
2019-01-25T10:50:31.826Z,25.9
2019-01-25T10:51:21.338Z,26.1
2019-01-25T10:52:13.511Z,26.2
2019-01-25T10:53:01.451Z,26.5
2019-01-25T10:53:51.721Z,26.8
2019-01-25T10:54:42.373Z,27.1
2019-01-25T10:55:32.422Z,27.3
2019-01-25T10:56:21.918Z,27.6
2019-01-25T10:58:02.034Z,28
2019-01-25T10:58:52.072Z,28.3
2019-01-25T10:59:41.848Z,28.4
2019-01-25T11:00:32.489Z,28.6
2019-01-25T11:01:21.999Z,28.8
2019-01-25T11:02:12.575Z,28.9
2019-01-25T11:03:07.671Z,29
2019-01-25T11:03:54.533Z,29.2
2019-01-25T11:04:43.039Z,29.3
2019-01-25T11:05:32.571Z,29.4
2019-01-25T11:06:23.137Z,29.5
2019-01-25T11:07:13.277Z,29.6
2019-01-25T11:08:03.036Z,29.6
2019-01-25T11:08:54.872Z,29.5
2019-01-25T11:09:47.701Z,29.3
2019-01-25T11:10:33.179Z,29.2
2019-01-25T11:11:23.506Z,29.1
2019-01-25T11:12:13.577Z,28.9
2019-01-25T11:13:10.006Z,28.8
2019-01-25T11:13:53.678Z,28.6
2019-01-25T11:14:43.768Z,28.5
2019-01-25T11:15:33.221Z,28.4
2019-01-25T11:16:23.547Z,28.3
2019-01-25T11:17:13.636Z,28.1
2019-01-25T11:18:03.224Z,26.9
2019-01-25T11:18:53.463Z,26.3
2019-01-25T11:19:43.244Z,26.1
2019-01-25T11:20:33.920Z,26.2
2019-01-25T11:21:23.983Z,26.3
2019-01-25T11:22:13.096Z,26.6
2019-01-25T11:23:03.785Z,26.9
2019-01-25T11:23:53.793Z,27.1
2019-01-25T11:24:43.858Z,27.3
2019-01-25T11:25:34.221Z,27.6
2019-01-25T11:27:14.255Z,28
2019-01-25T11:28:04.650Z,28.2
2019-01-25T11:28:54.442Z,28.4
2019-01-25T11:29:44.738Z,28.3
2019-01-25T11:30:34.101Z,28.2
2019-01-25T11:31:23.878Z,27.7
2019-01-25T11:32:14.726Z,27
2019-01-25T11:33:04.991Z,26.3
2019-01-25T11:33:54.220Z,25.4
2019-01-25T11:34:45.069Z,24.4
2019-01-25T11:35:34.562Z,23.7
2019-01-25T11:36:24.631Z,23.6
2019-01-25T11:37:14.490Z,23.8
2019-01-25T11:38:04.862Z,24.6
2019-01-25T11:38:54.594Z,25.3
2019-01-25T11:39:49.138Z,25.9
2019-01-25T11:40:34.983Z,26.3
2019-01-25T11:41:25.315Z,26.5
2019-01-25T11:42:15.082Z,26.8
2019-01-25T11:43:13.222Z,27.1
2019-01-25T11:43:55.492Z,27.4
2019-01-25T11:44:44.992Z,27.7
2019-01-25T11:45:35.594Z,27.9
2019-01-25T11:46:25.960Z,28.1
2019-01-25T11:47:15.944Z,28.4
2019-01-25T11:48:07.457Z,28.6
2019-01-25T11:48:55.480Z,28.8
2019-01-25T11:49:45.592Z,28.9
2019-01-25T11:50:36.164Z,29.1
2019-01-25T11:51:27.505Z,29.2
2019-01-25T11:52:15.647Z,29.3
2019-01-25T11:53:05.813Z,29.4
2019-01-25T11:53:56.425Z,29.6
2019-01-25T11:54:46.198Z,29.6
2019-01-25T11:55:35.932Z,29.4
2019-01-25T11:56:25.784Z,29.3
2019-01-25T11:57:16.619Z,29.2
2019-01-25T11:58:06.716Z,29.1
2019-01-25T11:58:56.743Z,28.9
2019-01-25T11:59:46.786Z,28.8
2019-01-25T12:00:36.923Z,28.6
2019-01-25T12:01:26.136Z,28.4
2019-01-25T12:02:23.831Z,28.4
2019-01-25T12:03:06.783Z,28.2